sensor_id;sensor_type;location;lat;lon;timestamp;temperature;humidity
49184;DHT22;35021;49.214;12.270;2023-02-01T00:00:29;19.50;34.20
49184;DHT22;35021;49.214;12.270;2023-02-01T00:02:56;19.50;34.20
49184;DHT22;35021;49.214;12.270;2023-02-01T00:05:23;19.50;34.20
49184;DHT22;35021;49.214;12.270;2023-02-01T00:07:50;19.50;34.10
49184;DHT22;35021;49.214;12.270;2023-02-01T00:10:17;19.50;34.20
49184;DHT22;35021;49.214;12.270;2023-02-01T00:12:44;19.50;34.10
49184;DHT22;35021;49.214;12.270;2023-02-01T00:15:11;19.50;34.10
49184;DHT22;35021;49.214;12.270;2023-02-01T00:17:38;19.50;34.20
49184;DHT22;35021;49.214;12.270;2023-02-01T00:20:05;19.50;34.20
49184;DHT22;35021;49.214;12.270;2023-02-01T00:22:32;19.50;34.30
49184;DHT22;35021;49.214;12.270;2023-02-01T00:24:59;19.40;34.30
49184;DHT22;35021;49.214;12.270;2023-02-01T00:27:26;19.40;35.00
49184;DHT22;35021;49.214;12.270;2023-02-01T00:29:55;19.40;34.30
49184;DHT22;35021;49.214;12.270;2023-02-01T00:32:22;19.40;34.30
49184;DHT22;35021;49.214;12.270;2023-02-01T00:34:49;19.40;34.30
49184;DHT22;35021;49.214;12.270;2023-02-01T00:37:15;19.40;34.40
49184;DHT22;35021;49.214;12.270;2023-02-01T00:39:42;19.40;34.40
49184;DHT22;35021;49.214;12.270;2023-02-01T00:42:09;19.40;34.40
49184;DHT22;35021;49.214;12.270;2023-02-01T00:44:36;19.40;34.40
49184;DHT22;35021;49.214;12.270;2023-02-01T00:47:03;19.40;34.40
49184;DHT22;35021;49.214;12.270;2023-02-01T00:49:30;19.40;34.40
49184;DHT22;35021;49.214;12.270;2023-02-01T00:51:57;19.40;34.40
49184;DHT22;35021;49.214;12.270;2023-02-01T00:54:23;19.40;34.40
49184;DHT22;35021;49.214;12.270;2023-02-01T00:56:50;19.40;34.40
49184;DHT22;35021;49.214;12.270;2023-02-01T00:59:17;19.40;34.40
49184;DHT22;35021;49.214;12.270;2023-02-01T01:01:44;19.40;35.10
49184;DHT22;35021;49.214;12.270;2023-02-01T01:04:11;19.40;34.40
49184;DHT22;35021;49.214;12.270;2023-02-01T01:06:38;19.40;34.30
49184;DHT22;35021;49.214;12.270;2023-02-01T01:09:06;19.40;34.40
49184;DHT22;35021;49.214;12.270;2023-02-01T01:11:36;19.40;34.40
49184;DHT22;35021;49.214;12.270;2023-02-01T01:14:05;19.40;34.40
49184;DHT22;35021;49.214;12.270;2023-02-01T01:16:33;19.40;34.30
49184;DHT22;35021;49.214;12.270;2023-02-01T01:19:01;19.50;34.40
49184;DHT22;35021;49.214;12.270;2023-02-01T01:21:29;19.40;34.40
49184;DHT22;35021;49.214;12.270;2023-02-01T01:23:56;19.40;34.40
49184;DHT22;35021;49.214;12.270;2023-02-01T01:26:25;19.40;34.40
49184;DHT22;35021;49.214;12.270;2023-02-01T01:28:54;19.40;34.40
49184;DHT22;35021;49.214;12.270;2023-02-01T01:31:22;19.50;34.50
49184;DHT22;35021;49.214;12.270;2023-02-01T01:33:51;19.40;34.50
49184;DHT22;35021;49.214;12.270;2023-02-01T01:36:19;19.40;34.50
49184;DHT22;35021;49.214;12.270;2023-02-01T01:38:46;19.40;34.60
49184;DHT22;35021;49.214;12.270;2023-02-01T01:41:16;19.50;34.70
49184;DHT22;35021;49.214;12.270;2023-02-01T01:43:56;19.50;34.80
49184;DHT22;35021;49.214;12.270;2023-02-01T01:46:31;19.50;34.80
49184;DHT22;35021;49.214;12.270;2023-02-01T01:49:09;19.40;34.70
49184;DHT22;35021;49.214;12.270;2023-02-01T01:51:47;19.40;34.80
49184;DHT22;35021;49.214;12.270;2023-02-01T01:54:21;19.40;34.70
49184;DHT22;35021;49.214;12.270;2023-02-01T01:56:55;19.40;34.80
49184;DHT22;35021;49.214;12.270;2023-02-01T01:59:24;19.40;34.80
49184;DHT22;35021;49.214;12.270;2023-02-01T02:01:51;19.40;34.70
49184;DHT22;35021;49.214;12.270;2023-02-01T02:04:18;19.40;34.80
49184;DHT22;35021;49.214;12.270;2023-02-01T02:07:11;19.40;34.80
49184;DHT22;35021;49.214;12.270;2023-02-01T02:09:38;19.40;34.80
49184;DHT22;35021;49.214;12.270;2023-02-01T02:12:11;19.40;34.80
49184;DHT22;35021;49.214;12.270;2023-02-01T02:14:37;19.40;34.90
49184;DHT22;35021;49.214;12.270;2023-02-01T02:17:30;19.40;34.90
49184;DHT22;35021;49.214;12.270;2023-02-01T02:20:30;19.40;34.90
49184;DHT22;35021;49.214;12.270;2023-02-01T02:23:36;19.40;34.90
49184;DHT22;35021;49.214;12.270;2023-02-01T02:27:12;19.50;34.90
49184;DHT22;35021;49.214;12.270;2023-02-01T02:34:54;19.70;34.70
49184;DHT22;35021;49.214;12.270;2023-02-01T02:37:32;19.70;34.60
49184;DHT22;35021;49.214;12.270;2023-02-01T02:45:45;19.90;34.50
49184;DHT22;35021;49.214;12.270;2023-02-01T02:51:13;19.90;34.40
49184;DHT22;35021;49.214;12.270;2023-02-01T02:54:28;19.90;34.40
49184;DHT22;35021;49.214;12.270;2023-02-01T02:57:27;19.90;34.50
49184;DHT22;35021;49.214;12.270;2023-02-01T03:00:16;19.90;34.70
49184;DHT22;35021;49.214;12.270;2023-02-01T03:03:04;19.90;34.70
49184;DHT22;35021;49.214;12.270;2023-02-01T03:05:50;19.90;34.70
49184;DHT22;35021;49.214;12.270;2023-02-01T03:08:22;19.90;34.60
49184;DHT22;35021;49.214;12.270;2023-02-01T03:11:05;20.00;34.60
49184;DHT22;35021;49.214;12.270;2023-02-01T03:16:26;20.10;34.50
49184;DHT22;35021;49.214;12.270;2023-02-01T03:18:58;20.10;34.40
49184;DHT22;35021;49.214;12.270;2023-02-01T03:21:59;20.20;34.30
49184;DHT22;35021;49.214;12.270;2023-02-01T03:24:30;20.20;34.10
49184;DHT22;35021;49.214;12.270;2023-02-01T03:27:23;20.30;34.20
49184;DHT22;35021;49.214;12.270;2023-02-01T03:30:07;20.30;34.10
49184;DHT22;35021;49.214;12.270;2023-02-01T03:32:38;20.30;34.00
49184;DHT22;35021;49.214;12.270;2023-02-01T03:35:32;20.30;33.90
49184;DHT22;35021;49.214;12.270;2023-02-01T03:38:22;20.30;34.00
49184;DHT22;35021;49.214;12.270;2023-02-01T03:43:52;20.20;34.00
49184;DHT22;35021;49.214;12.270;2023-02-01T03:46:27;20.20;34.00
49184;DHT22;35021;49.214;12.270;2023-02-01T03:49:05;20.20;34.00
49184;DHT22;35021;49.214;12.270;2023-02-01T03:55:52;20.30;34.00
49184;DHT22;35021;49.214;12.270;2023-02-01T03:59:44;20.30;33.90
49184;DHT22;35021;49.214;12.270;2023-02-01T04:02:12;20.40;33.80
49184;DHT22;35021;49.214;12.270;2023-02-01T04:04:39;20.40;33.80
49184;DHT22;35021;49.214;12.270;2023-02-01T04:07:05;20.40;33.70
49184;DHT22;35021;49.214;12.270;2023-02-01T04:09:32;20.40;33.70
49184;DHT22;35021;49.214;12.270;2023-02-01T04:11:59;20.40;33.80
49184;DHT22;35021;49.214;12.270;2023-02-01T04:14:26;20.40;33.90
49184;DHT22;35021;49.214;12.270;2023-02-01T04:16:53;20.30;34.10
49184;DHT22;35021;49.214;12.270;2023-02-01T04:19:23;20.20;34.20
49184;DHT22;35021;49.214;12.270;2023-02-01T04:21:50;20.20;34.40
49184;DHT22;35021;49.214;12.270;2023-02-01T04:24:17;20.10;34.50
49184;DHT22;35021;49.214;12.270;2023-02-01T04:26:44;19.90;34.60
49184;DHT22;35021;49.214;12.270;2023-02-01T04:29:11;19.90;34.70
49184;DHT22;35021;49.214;12.270;2023-02-01T04:31:38;19.90;34.90
49184;DHT22;35021;49.214;12.270;2023-02-01T04:34:05;19.80;34.80
49184;DHT22;35021;49.214;12.270;2023-02-01T04:36:32;19.80;34.80
49184;DHT22;35021;49.214;12.270;2023-02-01T04:38:59;19.80;34.90
49184;DHT22;35021;49.214;12.270;2023-02-01T04:41:25;19.90;34.90
49184;DHT22;35021;49.214;12.270;2023-02-01T04:43:52;19.90;34.90
49184;DHT22;35021;49.214;12.270;2023-02-01T04:46:19;19.90;34.80
49184;DHT22;35021;49.214;12.270;2023-02-01T04:48:46;20.00;34.80
49184;DHT22;35021;49.214;12.270;2023-02-01T04:51:13;20.00;34.70
49184;DHT22;35021;49.214;12.270;2023-02-01T04:53:41;20.10;34.60
49184;DHT22;35021;49.214;12.270;2023-02-01T04:56:08;20.10;34.60
49184;DHT22;35021;49.214;12.270;2023-02-01T04:58:35;20.10;34.60
49184;DHT22;35021;49.214;12.270;2023-02-01T05:01:03;20.00;34.60
49184;DHT22;35021;49.214;12.270;2023-02-01T05:03:34;20.00;34.60
49184;DHT22;35021;49.214;12.270;2023-02-01T05:06:02;19.90;34.70
49184;DHT22;35021;49.214;12.270;2023-02-01T05:08:31;19.90;34.70
49184;DHT22;35021;49.214;12.270;2023-02-01T05:10:58;19.80;34.80
49184;DHT22;35021;49.214;12.270;2023-02-01T05:13:25;19.80;34.90
49184;DHT22;35021;49.214;12.270;2023-02-01T05:16:10;19.80;34.90
49184;DHT22;35021;49.214;12.270;2023-02-01T05:18:37;19.70;34.90
49184;DHT22;35021;49.214;12.270;2023-02-01T05:21:04;19.80;34.90
49184;DHT22;35021;49.214;12.270;2023-02-01T05:23:31;19.80;34.90
49184;DHT22;35021;49.214;12.270;2023-02-01T05:25:59;19.80;34.80
49184;DHT22;35021;49.214;12.270;2023-02-01T05:28:28;19.90;34.70
49184;DHT22;35021;49.214;12.270;2023-02-01T05:30:55;19.90;34.70
49184;DHT22;35021;49.214;12.270;2023-02-01T05:33:22;20.00;34.70
49184;DHT22;35021;49.214;12.270;2023-02-01T05:35:49;20.00;34.50
49184;DHT22;35021;49.214;12.270;2023-02-01T05:38:17;20.00;34.60
49184;DHT22;35021;49.214;12.270;2023-02-01T05:40:43;20.10;34.60
49184;DHT22;35021;49.214;12.270;2023-02-01T05:43:16;20.10;34.70
49184;DHT22;35021;49.214;12.270;2023-02-01T05:45:43;20.10;34.80
49184;DHT22;35021;49.214;12.270;2023-02-01T05:48:10;20.00;34.70
49184;DHT22;35021;49.214;12.270;2023-02-01T05:50:36;20.00;34.70
49184;DHT22;35021;49.214;12.270;2023-02-01T05:53:04;20.00;34.80
49184;DHT22;35021;49.214;12.270;2023-02-01T05:55:31;19.90;34.90
49184;DHT22;35021;49.214;12.270;2023-02-01T05:57:58;20.00;34.90
49184;DHT22;35021;49.214;12.270;2023-02-01T06:00:25;20.00;35.00
49184;DHT22;35021;49.214;12.270;2023-02-01T06:02:52;20.00;34.90
49184;DHT22;35021;49.214;12.270;2023-02-01T06:05:19;20.00;34.80
49184;DHT22;35021;49.214;12.270;2023-02-01T06:07:46;20.00;34.80
49184;DHT22;35021;49.214;12.270;2023-02-01T06:10:13;20.00;34.70
49184;DHT22;35021;49.214;12.270;2023-02-01T06:12:40;20.00;34.70
49184;DHT22;35021;49.214;12.270;2023-02-01T06:15:07;20.00;34.70
49184;DHT22;35021;49.214;12.270;2023-02-01T06:17:34;20.10;34.70
49184;DHT22;35021;49.214;12.270;2023-02-01T06:20:01;20.10;34.60
49184;DHT22;35021;49.214;12.270;2023-02-01T06:22:28;20.20;34.60
49184;DHT22;35021;49.214;12.270;2023-02-01T06:24:55;20.20;34.60
49184;DHT22;35021;49.214;12.270;2023-02-01T06:27:21;20.20;34.50
49184;DHT22;35021;49.214;12.270;2023-02-01T06:29:48;20.20;34.50
49184;DHT22;35021;49.214;12.270;2023-02-01T06:32:15;20.20;34.50
49184;DHT22;35021;49.214;12.270;2023-02-01T06:34:43;20.20;34.50
49184;DHT22;35021;49.214;12.270;2023-02-01T06:37:10;20.20;34.50
49184;DHT22;35021;49.214;12.270;2023-02-01T06:39:37;20.20;35.20
49184;DHT22;35021;49.214;12.270;2023-02-01T06:42:04;20.20;34.60
49184;DHT22;35021;49.214;12.270;2023-02-01T06:44:31;20.10;34.50
49184;DHT22;35021;49.214;12.270;2023-02-01T06:46:58;20.10;34.50
49184;DHT22;35021;49.214;12.270;2023-02-01T06:49:25;20.10;34.50
49184;DHT22;35021;49.214;12.270;2023-02-01T06:51:52;20.10;34.50
49184;DHT22;35021;49.214;12.270;2023-02-01T06:54:18;20.10;34.50
49184;DHT22;35021;49.214;12.270;2023-02-01T06:56:45;20.10;34.50
49184;DHT22;35021;49.214;12.270;2023-02-01T06:59:12;20.10;35.30
49184;DHT22;35021;49.214;12.270;2023-02-01T07:01:42;20.10;34.50
49184;DHT22;35021;49.214;12.270;2023-02-01T07:04:12;20.00;34.40
49184;DHT22;35021;49.214;12.270;2023-02-01T07:06:39;20.10;34.50
49184;DHT22;35021;49.214;12.270;2023-02-01T07:09:07;20.00;34.40
49184;DHT22;35021;49.214;12.270;2023-02-01T07:11:34;20.00;34.40
49184;DHT22;35021;49.214;12.270;2023-02-01T07:14:01;20.00;34.40
49184;DHT22;35021;49.214;12.270;2023-02-01T07:16:27;20.00;34.40
49184;DHT22;35021;49.214;12.270;2023-02-01T07:18:55;20.00;34.40
49184;DHT22;35021;49.214;12.270;2023-02-01T07:21:22;20.00;34.40
49184;DHT22;35021;49.214;12.270;2023-02-01T07:23:49;20.00;34.50
49184;DHT22;35021;49.214;12.270;2023-02-01T07:26:15;19.90;34.40
49184;DHT22;35021;49.214;12.270;2023-02-01T07:28:43;19.90;34.40
49184;DHT22;35021;49.214;12.270;2023-02-01T07:31:18;19.90;34.40
49184;DHT22;35021;49.214;12.270;2023-02-01T07:33:48;19.90;34.40
49184;DHT22;35021;49.214;12.270;2023-02-01T07:36:18;19.90;34.40
49184;DHT22;35021;49.214;12.270;2023-02-01T07:38:45;19.90;34.30
49184;DHT22;35021;49.214;12.270;2023-02-01T07:41:16;20.00;34.30
49184;DHT22;35021;49.214;12.270;2023-02-01T07:43:43;20.00;34.20
49184;DHT22;35021;49.214;12.270;2023-02-01T07:46:10;20.10;34.10
49184;DHT22;35021;49.214;12.270;2023-02-01T07:48:37;20.10;34.10
49184;DHT22;35021;49.214;12.270;2023-02-01T07:51:10;20.20;34.00
49184;DHT22;35021;49.214;12.270;2023-02-01T07:53:37;20.20;33.90
49184;DHT22;35021;49.214;12.270;2023-02-01T07:56:16;20.30;33.80
49184;DHT22;35021;49.214;12.270;2023-02-01T07:58:46;20.30;33.70
49184;DHT22;35021;49.214;12.270;2023-02-01T08:01:15;20.30;33.70
49184;DHT22;35021;49.214;12.270;2023-02-01T08:03:59;20.30;33.60
49184;DHT22;35021;49.214;12.270;2023-02-01T08:06:27;20.30;33.60
49184;DHT22;35021;49.214;12.270;2023-02-01T08:08:55;20.30;33.60
49184;DHT22;35021;49.214;12.270;2023-02-01T08:11:22;20.30;33.70
49184;DHT22;35021;49.214;12.270;2023-02-01T08:13:50;20.30;33.70
49184;DHT22;35021;49.214;12.270;2023-02-01T08:16:18;20.20;33.70
49184;DHT22;35021;49.214;12.270;2023-02-01T08:18:46;20.20;33.80
49184;DHT22;35021;49.214;12.270;2023-02-01T08:21:16;20.10;33.70
49184;DHT22;35021;49.214;12.270;2023-02-01T08:23:45;20.20;33.90
49184;DHT22;35021;49.214;12.270;2023-02-01T08:26:16;20.10;34.00
49184;DHT22;35021;49.214;12.270;2023-02-01T08:28:51;20.10;34.10
49184;DHT22;35021;49.214;12.270;2023-02-01T08:31:20;20.00;34.00
49184;DHT22;35021;49.214;12.270;2023-02-01T08:33:50;20.00;34.10
49184;DHT22;35021;49.214;12.270;2023-02-01T08:36:17;20.00;34.10
49184;DHT22;35021;49.214;12.270;2023-02-01T08:38:44;20.10;34.20
49184;DHT22;35021;49.214;12.270;2023-02-01T08:41:13;20.10;34.20
49184;DHT22;35021;49.214;12.270;2023-02-01T08:43:41;20.10;34.20
49184;DHT22;35021;49.214;12.270;2023-02-01T08:46:09;20.10;34.30
49184;DHT22;35021;49.214;12.270;2023-02-01T08:48:37;20.10;34.30
49184;DHT22;35021;49.214;12.270;2023-02-01T08:51:09;20.00;34.30
49184;DHT22;35021;49.214;12.270;2023-02-01T08:53:37;20.00;34.50
49184;DHT22;35021;49.214;12.270;2023-02-01T08:56:05;20.00;34.40
49184;DHT22;35021;49.214;12.270;2023-02-01T08:58:32;20.00;34.40
49184;DHT22;35021;49.214;12.270;2023-02-01T09:01:14;19.90;34.50
49184;DHT22;35021;49.214;12.270;2023-02-01T09:03:41;19.90;34.60
49184;DHT22;35021;49.214;12.270;2023-02-01T09:06:11;19.90;34.60
49184;DHT22;35021;49.214;12.270;2023-02-01T09:08:38;19.90;34.70
49184;DHT22;35021;49.214;12.270;2023-02-01T09:11:08;19.90;34.70
49184;DHT22;35021;49.214;12.270;2023-02-01T09:13:36;19.90;34.70
49184;DHT22;35021;49.214;12.270;2023-02-01T09:16:04;20.00;34.70
49184;DHT22;35021;49.214;12.270;2023-02-01T09:18:31;20.00;34.70
49184;DHT22;35021;49.214;12.270;2023-02-01T09:20:57;20.00;34.70
49184;DHT22;35021;49.214;12.270;2023-02-01T09:23:24;20.10;34.70
49184;DHT22;35021;49.214;12.270;2023-02-01T09:25:51;20.10;34.70
49184;DHT22;35021;49.214;12.270;2023-02-01T09:28:18;20.10;34.60
49184;DHT22;35021;49.214;12.270;2023-02-01T09:30:45;20.10;34.50
49184;DHT22;35021;49.214;12.270;2023-02-01T09:33:13;20.10;34.60
49184;DHT22;35021;49.214;12.270;2023-02-01T09:35:39;20.10;34.60
49184;DHT22;35021;49.214;12.270;2023-02-01T09:38:06;20.10;34.70
49184;DHT22;35021;49.214;12.270;2023-02-01T09:40:34;20.10;34.70
49184;DHT22;35021;49.214;12.270;2023-02-01T09:43:21;20.00;34.60
49184;DHT22;35021;49.214;12.270;2023-02-01T09:46:03;20.00;34.70
49184;DHT22;35021;49.214;12.270;2023-02-01T09:48:38;20.00;34.80
49184;DHT22;35021;49.214;12.270;2023-02-01T09:51:15;20.00;34.80
49184;DHT22;35021;49.214;12.270;2023-02-01T09:53:44;19.90;34.80
49184;DHT22;35021;49.214;12.270;2023-02-01T09:56:18;19.90;34.80
49184;DHT22;35021;49.214;12.270;2023-02-01T09:58:56;19.90;34.90
49184;DHT22;35021;49.214;12.270;2023-02-01T10:01:26;19.90;34.90
49184;DHT22;35021;49.214;12.270;2023-02-01T10:04:01;19.90;34.80
49184;DHT22;35021;49.214;12.270;2023-02-01T10:06:54;20.00;34.80
49184;DHT22;35021;49.214;12.270;2023-02-01T10:09:52;20.00;34.80
49184;DHT22;35021;49.214;12.270;2023-02-01T10:12:57;20.00;34.70
49184;DHT22;35021;49.214;12.270;2023-02-01T10:20:56;20.20;34.50
49184;DHT22;35021;49.214;12.270;2023-02-01T10:26:25;20.30;34.40
49184;DHT22;35021;49.214;12.270;2023-02-01T10:28:55;20.30;34.40
49184;DHT22;35021;49.214;12.270;2023-02-01T10:31:26;20.40;34.40
49184;DHT22;35021;49.214;12.270;2023-02-01T10:34:14;20.40;34.40
49184;DHT22;35021;49.214;12.270;2023-02-01T10:36:50;20.50;34.50
49184;DHT22;35021;49.214;12.270;2023-02-01T10:39:18;20.50;34.50
49184;DHT22;35021;49.214;12.270;2023-02-01T10:41:45;20.50;34.50
49184;DHT22;35021;49.214;12.270;2023-02-01T10:44:15;20.50;34.50
49184;DHT22;35021;49.214;12.270;2023-02-01T10:46:43;20.50;34.50
49184;DHT22;35021;49.214;12.270;2023-02-01T10:49:22;20.60;34.50
49184;DHT22;35021;49.214;12.270;2023-02-01T10:51:55;20.60;34.50
49184;DHT22;35021;49.214;12.270;2023-02-01T10:54:43;20.60;34.50
49184;DHT22;35021;49.214;12.270;2023-02-01T10:57:22;20.60;34.50
49184;DHT22;35021;49.214;12.270;2023-02-01T10:59:52;20.70;34.50
49184;DHT22;35021;49.214;12.270;2023-02-01T11:02:33;20.70;34.50
49184;DHT22;35021;49.214;12.270;2023-02-01T11:05:07;20.70;34.40
49184;DHT22;35021;49.214;12.270;2023-02-01T11:07:36;20.70;34.40
49184;DHT22;35021;49.214;12.270;2023-02-01T11:10:04;20.70;34.40
49184;DHT22;35021;49.214;12.270;2023-02-01T11:12:34;20.70;34.30
49184;DHT22;35021;49.214;12.270;2023-02-01T11:15:22;20.70;34.40
49184;DHT22;35021;49.214;12.270;2023-02-01T11:17:51;20.70;34.30
49184;DHT22;35021;49.214;12.270;2023-02-01T11:20:32;20.60;34.30
49184;DHT22;35021;49.214;12.270;2023-02-01T11:23:01;20.60;34.20
49184;DHT22;35021;49.214;12.270;2023-02-01T11:25:28;20.70;34.30
49184;DHT22;35021;49.214;12.270;2023-02-01T11:27:55;20.70;34.30
49184;DHT22;35021;49.214;12.270;2023-02-01T11:30:38;20.70;34.20
49184;DHT22;35021;49.214;12.270;2023-02-01T11:33:12;20.70;34.20
49184;DHT22;35021;49.214;12.270;2023-02-01T11:35:41;20.70;34.20
49184;DHT22;35021;49.214;12.270;2023-02-01T11:40:44;20.80;34.00
49184;DHT22;35021;49.214;12.270;2023-02-01T11:43:24;20.80;33.90
49184;DHT22;35021;49.214;12.270;2023-02-01T11:46:02;20.80;34.00
49184;DHT22;35021;49.214;12.270;2023-02-01T11:48:31;20.80;34.00
49184;DHT22;35021;49.214;12.270;2023-02-01T11:54:18;20.90;33.90
49184;DHT22;35021;49.214;12.270;2023-02-01T11:57:00;21.00;33.90
49184;DHT22;35021;49.214;12.270;2023-02-01T11:59:41;21.00;33.90
49184;DHT22;35021;49.214;12.270;2023-02-01T12:08:23;21.10;33.70
49184;DHT22;35021;49.214;12.270;2023-02-01T12:13:54;21.20;33.70
49184;DHT22;35021;49.214;12.270;2023-02-01T12:17:06;21.20;33.70
49184;DHT22;35021;49.214;12.270;2023-02-01T12:19:39;21.30;33.60
49184;DHT22;35021;49.214;12.270;2023-02-01T12:25:37;21.40;33.40
49184;DHT22;35021;49.214;12.270;2023-02-01T12:31:12;21.40;33.20
49184;DHT22;35021;49.214;12.270;2023-02-01T12:38:56;21.40;33.00
49184;DHT22;35021;49.214;12.270;2023-02-01T12:41:53;21.30;33.10
49184;DHT22;35021;49.214;12.270;2023-02-01T12:44:42;21.30;33.20
49184;DHT22;35021;49.214;12.270;2023-02-01T12:47:50;21.20;33.30
49184;DHT22;35021;49.214;12.270;2023-02-01T12:50:27;21.10;33.40
49184;DHT22;35021;49.214;12.270;2023-02-01T12:53:06;21.00;33.40
49184;DHT22;35021;49.214;12.270;2023-02-01T12:55:39;21.00;33.50
49184;DHT22;35021;49.214;12.270;2023-02-01T12:58:22;20.90;33.40
49184;DHT22;35021;49.214;12.270;2023-02-01T13:00:59;20.90;33.40
49184;DHT22;35021;49.214;12.270;2023-02-01T13:03:52;20.90;33.40
49184;DHT22;35021;49.214;12.270;2023-02-01T13:06:23;20.90;33.30
49184;DHT22;35021;49.214;12.270;2023-02-01T13:09:19;20.90;33.10
49184;DHT22;35021;49.214;12.270;2023-02-01T13:11:45;21.00;33.10
49184;DHT22;35021;49.214;12.270;2023-02-01T13:14:32;21.00;33.10
49184;DHT22;35021;49.214;12.270;2023-02-01T13:17:04;21.00;33.10
49184;DHT22;35021;49.214;12.270;2023-02-01T13:19:52;21.10;33.00
49184;DHT22;35021;49.214;12.270;2023-02-01T13:22:25;21.10;32.90
49184;DHT22;35021;49.214;12.270;2023-02-01T13:25:03;21.20;32.80
49184;DHT22;35021;49.214;12.270;2023-02-01T13:27:32;21.20;32.80
49184;DHT22;35021;49.214;12.270;2023-02-01T13:33:34;21.30;32.80
49184;DHT22;35021;49.214;12.270;2023-02-01T13:36:06;21.30;32.80
49184;DHT22;35021;49.214;12.270;2023-02-01T13:41:31;21.30;32.60
49184;DHT22;35021;49.214;12.270;2023-02-01T13:44:03;21.30;32.70
49184;DHT22;35021;49.214;12.270;2023-02-01T13:46:38;21.20;32.60
49184;DHT22;35021;49.214;12.270;2023-02-01T13:49:05;21.20;32.70
49184;DHT22;35021;49.214;12.270;2023-02-01T13:51:40;21.20;32.70
49184;DHT22;35021;49.214;12.270;2023-02-01T13:54:31;21.10;32.70
49184;DHT22;35021;49.214;12.270;2023-02-01T13:56:59;21.00;32.80
49184;DHT22;35021;49.214;12.270;2023-02-01T13:59:50;21.00;32.80
49184;DHT22;35021;49.214;12.270;2023-02-01T14:08:11;20.80;32.90
49184;DHT22;35021;49.214;12.270;2023-02-01T14:10:46;20.80;33.00
49184;DHT22;35021;49.214;12.270;2023-02-01T14:13:34;20.80;33.00
49184;DHT22;35021;49.214;12.270;2023-02-01T14:21:23;20.80;33.10
49184;DHT22;35021;49.214;12.270;2023-02-01T14:24:02;20.80;33.00
49184;DHT22;35021;49.214;12.270;2023-02-01T14:26:46;20.80;33.00
49184;DHT22;35021;49.214;12.270;2023-02-01T14:34:29;20.80;32.80
49184;DHT22;35021;49.214;12.270;2023-02-01T14:37:00;20.80;32.80
49184;DHT22;35021;49.214;12.270;2023-02-01T14:42:15;20.80;32.70
49184;DHT22;35021;49.214;12.270;2023-02-01T14:44:44;20.90;32.70
49184;DHT22;35021;49.214;12.270;2023-02-01T14:47:29;20.90;32.80
49184;DHT22;35021;49.214;12.270;2023-02-01T14:55:45;21.00;33.00
49184;DHT22;35021;49.214;12.270;2023-02-01T14:58:21;21.00;33.10
49184;DHT22;35021;49.214;12.270;2023-02-01T15:00:56;21.00;33.10
49184;DHT22;35021;49.214;12.270;2023-02-01T15:06:04;21.00;33.10
49184;DHT22;35021;49.214;12.270;2023-02-01T15:08:41;21.00;33.10
49184;DHT22;35021;49.214;12.270;2023-02-01T15:11:14;21.00;33.10
49184;DHT22;35021;49.214;12.270;2023-02-01T15:13:49;20.90;33.10
49184;DHT22;35021;49.214;12.270;2023-02-01T15:16:20;20.90;33.10
49184;DHT22;35021;49.214;12.270;2023-02-01T15:18:47;20.80;33.10
49184;DHT22;35021;49.214;12.270;2023-02-01T15:24:10;20.70;33.20
49184;DHT22;35021;49.214;12.270;2023-02-01T15:26:38;20.70;33.30
49184;DHT22;35021;49.214;12.270;2023-02-01T15:29:05;20.70;33.20
49184;DHT22;35021;49.214;12.270;2023-02-01T15:31:38;20.70;33.20
49184;DHT22;35021;49.214;12.270;2023-02-01T15:34:07;20.80;33.00
49184;DHT22;35021;49.214;12.270;2023-02-01T15:36:34;20.80;33.00
49184;DHT22;35021;49.214;12.270;2023-02-01T15:39:23;20.80;32.90
49184;DHT22;35021;49.214;12.270;2023-02-01T15:41:57;20.90;32.90
49184;DHT22;35021;49.214;12.270;2023-02-01T15:46:54;20.90;32.70
49184;DHT22;35021;49.214;12.270;2023-02-01T15:49:30;20.90;32.70
49184;DHT22;35021;49.214;12.270;2023-02-01T15:51:58;20.90;32.60
49184;DHT22;35021;49.214;12.270;2023-02-01T15:54:29;20.90;32.50
49184;DHT22;35021;49.214;12.270;2023-02-01T15:56:59;20.90;32.50
49184;DHT22;35021;49.214;12.270;2023-02-01T15:59:58;21.00;32.50
49184;DHT22;35021;49.214;12.270;2023-02-01T16:05:03;21.00;32.40
49184;DHT22;35021;49.214;12.270;2023-02-01T16:07:32;21.10;32.40
49184;DHT22;35021;49.214;12.270;2023-02-01T16:10:01;21.10;32.30
49184;DHT22;35021;49.214;12.270;2023-02-01T16:12:46;21.10;32.20
49184;DHT22;35021;49.214;12.270;2023-02-01T16:15:14;21.10;32.20
49184;DHT22;35021;49.214;12.270;2023-02-01T16:17:41;21.10;32.20
49184;DHT22;35021;49.214;12.270;2023-02-01T16:20:09;21.10;32.20
49184;DHT22;35021;49.214;12.270;2023-02-01T16:22:36;21.10;32.10
49184;DHT22;35021;49.214;12.270;2023-02-01T16:25:03;21.10;32.10
49184;DHT22;35021;49.214;12.270;2023-02-01T16:27:30;21.00;32.20
49184;DHT22;35021;49.214;12.270;2023-02-01T16:29:57;21.00;32.20
49184;DHT22;35021;49.214;12.270;2023-02-01T16:32:31;21.00;32.20
49184;DHT22;35021;49.214;12.270;2023-02-01T16:34:58;20.90;32.10
49184;DHT22;35021;49.214;12.270;2023-02-01T16:37:25;20.90;32.10
49184;DHT22;35021;49.214;12.270;2023-02-01T16:39:54;20.90;32.10
49184;DHT22;35021;49.214;12.270;2023-02-01T16:42:21;20.90;32.10
49184;DHT22;35021;49.214;12.270;2023-02-01T16:44:47;20.90;32.10
49184;DHT22;35021;49.214;12.270;2023-02-01T16:47:19;21.00;32.10
49184;DHT22;35021;49.214;12.270;2023-02-01T16:49:49;21.00;32.10
49184;DHT22;35021;49.214;12.270;2023-02-01T16:52:21;21.00;32.00
49184;DHT22;35021;49.214;12.270;2023-02-01T16:54:49;21.00;31.90
49184;DHT22;35021;49.214;12.270;2023-02-01T16:57:18;21.10;31.90
49184;DHT22;35021;49.214;12.270;2023-02-01T16:59:49;21.10;31.80
49184;DHT22;35021;49.214;12.270;2023-02-01T17:02:18;21.10;31.60
49184;DHT22;35021;49.214;12.270;2023-02-01T17:04:48;21.20;31.60
49184;DHT22;35021;49.214;12.270;2023-02-01T17:07:17;21.20;31.50
49184;DHT22;35021;49.214;12.270;2023-02-01T17:09:46;21.20;31.40
49184;DHT22;35021;49.214;12.270;2023-02-01T17:12:24;21.30;31.40
49184;DHT22;35021;49.214;12.270;2023-02-01T17:14:52;21.40;31.40
49184;DHT22;35021;49.214;12.270;2023-02-01T17:17:20;21.40;31.30
49184;DHT22;35021;49.214;12.270;2023-02-01T17:20:04;21.40;31.30
49184;DHT22;35021;49.214;12.270;2023-02-01T17:22:32;21.40;31.10
49184;DHT22;35021;49.214;12.270;2023-02-01T17:24:59;21.50;31.10
49184;DHT22;35021;49.214;12.270;2023-02-01T17:27:26;21.50;31.10